sensor_id;sensor_type;location;lat;lon;timestamp;temperature;humidity
16417;DHT22;8317;52.186;5.688;2023-04-24T00:01:21;9.80;99.90
16417;DHT22;8317;52.186;5.688;2023-04-24T00:03:48;9.70;99.90
16417;DHT22;8317;52.186;5.688;2023-04-24T00:06:15;9.80;99.90
16417;DHT22;8317;52.186;5.688;2023-04-24T00:08:44;9.70;99.90
16417;DHT22;8317;52.186;5.688;2023-04-24T00:11:11;9.80;99.90
16417;DHT22;8317;52.186;5.688;2023-04-24T00:13:38;9.70;99.90
16417;DHT22;8317;52.186;5.688;2023-04-24T00:16:05;9.70;99.90
16417;DHT22;8317;52.186;5.688;2023-04-24T00:18:32;9.80;99.90
16417;DHT22;8317;52.186;5.688;2023-04-24T00:20:59;9.80;99.90
16417;DHT22;8317;52.186;5.688;2023-04-24T00:23:26;9.80;99.90
16417;DHT22;8317;52.186;5.688;2023-04-24T00:25:54;9.80;99.90
16417;DHT22;8317;52.186;5.688;2023-04-24T00:28:21;9.80;99.90
16417;DHT22;8317;52.186;5.688;2023-04-24T00:30:48;9.80;99.90
16417;DHT22;8317;52.186;5.688;2023-04-24T00:33:15;9.80;99.90
16417;DHT22;8317;52.186;5.688;2023-04-24T00:35:42;9.90;99.90
16417;DHT22;8317;52.186;5.688;2023-04-24T00:38:09;9.80;99.90
16417;DHT22;8317;52.186;5.688;2023-04-24T00:40:36;9.90;99.90
16417;DHT22;8317;52.186;5.688;2023-04-24T00:43:04;9.80;99.90
16417;DHT22;8317;52.186;5.688;2023-04-24T00:45:31;9.80;99.90
16417;DHT22;8317;52.186;5.688;2023-04-24T00:48:00;9.80;99.90
16417;DHT22;8317;52.186;5.688;2023-04-24T00:50:27;9.80;99.90
16417;DHT22;8317;52.186;5.688;2023-04-24T00:52:54;9.80;99.90
16417;DHT22;8317;52.186;5.688;2023-04-24T00:55:21;9.80;99.90
16417;DHT22;8317;52.186;5.688;2023-04-24T00:57:48;9.80;99.90
16417;DHT22;8317;52.186;5.688;2023-04-24T01:00:17;9.80;99.90
16417;DHT22;8317;52.186;5.688;2023-04-24T01:02:45;9.70;99.90
16417;DHT22;8317;52.186;5.688;2023-04-24T01:05:13;9.70;99.90
16417;DHT22;8317;52.186;5.688;2023-04-24T01:07:43;9.70;99.90
16417;DHT22;8317;52.186;5.688;2023-04-24T01:10:11;9.70;99.90
16417;DHT22;8317;52.186;5.688;2023-04-24T01:12:39;9.80;99.90
16417;DHT22;8317;52.186;5.688;2023-04-24T01:15:07;9.70;99.90
16417;DHT22;8317;52.186;5.688;2023-04-24T01:17:36;9.70;99.90
16417;DHT22;8317;52.186;5.688;2023-04-24T01:20:04;9.80;99.90
16417;DHT22;8317;52.186;5.688;2023-04-24T01:22:34;9.70;99.90
16417;DHT22;8317;52.186;5.688;2023-04-24T01:25:01;9.70;99.90
16417;DHT22;8317;52.186;5.688;2023-04-24T01:27:28;9.70;99.90
16417;DHT22;8317;52.186;5.688;2023-04-24T01:29:55;9.70;99.90
16417;DHT22;8317;52.186;5.688;2023-04-24T01:32:22;9.70;99.90
16417;DHT22;8317;52.186;5.688;2023-04-24T01:34:50;9.70;99.90
16417;DHT22;8317;52.186;5.688;2023-04-24T01:37:17;9.70;99.90
16417;DHT22;8317;52.186;5.688;2023-04-24T01:39:45;9.70;99.90
16417;DHT22;8317;52.186;5.688;2023-04-24T01:42:12;9.70;99.90
16417;DHT22;8317;52.186;5.688;2023-04-24T01:44:40;9.70;99.90
16417;DHT22;8317;52.186;5.688;2023-04-24T01:47:07;9.70;99.90
16417;DHT22;8317;52.186;5.688;2023-04-24T01:49:34;9.80;99.90
16417;DHT22;8317;52.186;5.688;2023-04-24T01:52:01;9.80;99.90
16417;DHT22;8317;52.186;5.688;2023-04-24T01:54:28;9.80;99.90
16417;DHT22;8317;52.186;5.688;2023-04-24T01:56:57;9.80;99.90
16417;DHT22;8317;52.186;5.688;2023-04-24T01:59:25;9.80;99.90
16417;DHT22;8317;52.186;5.688;2023-04-24T02:01:53;9.80;99.90
16417;DHT22;8317;52.186;5.688;2023-04-24T02:04:20;9.80;99.90
16417;DHT22;8317;52.186;5.688;2023-04-24T02:06:47;9.80;99.90
16417;DHT22;8317;52.186;5.688;2023-04-24T02:09:14;9.80;99.90
16417;DHT22;8317;52.186;5.688;2023-04-24T02:11:41;9.80;99.90
16417;DHT22;8317;52.186;5.688;2023-04-24T02:14:09;9.80;99.90
16417;DHT22;8317;52.186;5.688;2023-04-24T02:16:36;9.80;99.90
16417;DHT22;8317;52.186;5.688;2023-04-24T02:19:03;9.80;99.90
16417;DHT22;8317;52.186;5.688;2023-04-24T02:21:30;9.90;99.90
16417;DHT22;8317;52.186;5.688;2023-04-24T02:23:57;9.90;99.90
16417;DHT22;8317;52.186;5.688;2023-04-24T02:26:24;9.90;99.90
16417;DHT22;8317;52.186;5.688;2023-04-24T02:28:51;9.90;99.90
16417;DHT22;8317;52.186;5.688;2023-04-24T02:31:19;9.90;99.90
16417;DHT22;8317;52.186;5.688;2023-04-24T02:33:46;10.00;99.90
16417;DHT22;8317;52.186;5.688;2023-04-24T02:36:13;9.90;99.90
16417;DHT22;8317;52.186;5.688;2023-04-24T02:38:40;9.90;99.90
16417;DHT22;8317;52.186;5.688;2023-04-24T02:41:07;9.90;99.90
16417;DHT22;8317;52.186;5.688;2023-04-24T02:43:34;9.90;99.90
16417;DHT22;8317;52.186;5.688;2023-04-24T02:46:01;9.90;99.90
16417;DHT22;8317;52.186;5.688;2023-04-24T02:48:29;9.80;99.90
16417;DHT22;8317;52.186;5.688;2023-04-24T02:50:56;9.80;99.90
16417;DHT22;8317;52.186;5.688;2023-04-24T02:53:23;9.80;99.90
16417;DHT22;8317;52.186;5.688;2023-04-24T02:55:50;9.80;99.90
16417;DHT22;8317;52.186;5.688;2023-04-24T02:58:17;9.80;99.90
16417;DHT22;8317;52.186;5.688;2023-04-24T03:00:45;9.80;99.90
16417;DHT22;8317;52.186;5.688;2023-04-24T03:03:12;9.80;99.90
16417;DHT22;8317;52.186;5.688;2023-04-24T03:05:43;9.90;99.90
16417;DHT22;8317;52.186;5.688;2023-04-24T03:08:10;9.80;99.90
16417;DHT22;8317;52.186;5.688;2023-04-24T03:10:37;9.80;99.90
16417;DHT22;8317;52.186;5.688;2023-04-24T03:13:03;9.90;99.90
16417;DHT22;8317;52.186;5.688;2023-04-24T03:15:30;9.80;99.90
16417;DHT22;8317;52.186;5.688;2023-04-24T03:17:57;9.90;99.90
16417;DHT22;8317;52.186;5.688;2023-04-24T03:20:26;9.90;99.90
16417;DHT22;8317;52.186;5.688;2023-04-24T03:22:54;9.90;99.90
16417;DHT22;8317;52.186;5.688;2023-04-24T03:25:22;9.90;99.90
16417;DHT22;8317;52.186;5.688;2023-04-24T03:27:48;9.90;99.90
16417;DHT22;8317;52.186;5.688;2023-04-24T03:30:15;9.90;99.90
16417;DHT22;8317;52.186;5.688;2023-04-24T03:32:42;9.90;99.90
16417;DHT22;8317;52.186;5.688;2023-04-24T03:35:09;9.90;99.90
16417;DHT22;8317;52.186;5.688;2023-04-24T03:37:36;9.90;99.90
16417;DHT22;8317;52.186;5.688;2023-04-24T03:40:06;9.90;99.90
16417;DHT22;8317;52.186;5.688;2023-04-24T03:42:33;9.90;99.90
16417;DHT22;8317;52.186;5.688;2023-04-24T03:45:00;9.90;99.90
16417;DHT22;8317;52.186;5.688;2023-04-24T03:47:27;9.90;99.90
16417;DHT22;8317;52.186;5.688;2023-04-24T03:49:54;9.90;99.90
16417;DHT22;8317;52.186;5.688;2023-04-24T03:52:21;9.90;99.90
16417;DHT22;8317;52.186;5.688;2023-04-24T03:54:48;9.90;99.90
16417;DHT22;8317;52.186;5.688;2023-04-24T03:57:16;9.90;99.90
16417;DHT22;8317;52.186;5.688;2023-04-24T03:59:43;9.90;99.90
16417;DHT22;8317;52.186;5.688;2023-04-24T04:02:10;9.90;99.90
16417;DHT22;8317;52.186;5.688;2023-04-24T04:04:37;9.80;99.90
16417;DHT22;8317;52.186;5.688;2023-04-24T04:07:03;9.80;99.90
16417;DHT22;8317;52.186;5.688;2023-04-24T04:09:30;9.80;99.90
16417;DHT22;8317;52.186;5.688;2023-04-24T04:11:58;9.80;99.90
16417;DHT22;8317;52.186;5.688;2023-04-24T04:14:27;9.80;99.90
16417;DHT22;8317;52.186;5.688;2023-04-24T04:16:54;9.80;99.90
16417;DHT22;8317;52.186;5.688;2023-04-24T04:19:21;9.90;99.90
16417;DHT22;8317;52.186;5.688;2023-04-24T04:21:48;9.80;99.90
16417;DHT22;8317;52.186;5.688;2023-04-24T04:24:18;9.90;99.90
16417;DHT22;8317;52.186;5.688;2023-04-24T04:26:46;9.90;99.90
16417;DHT22;8317;52.186;5.688;2023-04-24T04:29:13;9.90;99.90
16417;DHT22;8317;52.186;5.688;2023-04-24T04:31:42;9.80;99.90
16417;DHT22;8317;52.186;5.688;2023-04-24T04:34:09;9.90;99.90
16417;DHT22;8317;52.186;5.688;2023-04-24T04:36:37;9.90;99.90
16417;DHT22;8317;52.186;5.688;2023-04-24T04:39:05;9.90;99.90
16417;DHT22;8317;52.186;5.688;2023-04-24T04:41:33;9.80;99.90
16417;DHT22;8317;52.186;5.688;2023-04-24T04:44:01;9.80;99.90
16417;DHT22;8317;52.186;5.688;2023-04-24T04:46:30;9.80;99.90
16417;DHT22;8317;52.186;5.688;2023-04-24T04:48:59;9.90;99.90
16417;DHT22;8317;52.186;5.688;2023-04-24T04:51:27;9.70;99.90
16417;DHT22;8317;52.186;5.688;2023-04-24T04:53:53;9.60;99.90
16417;DHT22;8317;52.186;5.688;2023-04-24T04:56:20;9.70;99.90
16417;DHT22;8317;52.186;5.688;2023-04-24T04:58:47;9.70;99.90
16417;DHT22;8317;52.186;5.688;2023-04-24T05:01:14;9.70;99.90
16417;DHT22;8317;52.186;5.688;2023-04-24T05:03:41;9.70;99.90
16417;DHT22;8317;52.186;5.688;2023-04-24T05:06:10;9.70;99.90
16417;DHT22;8317;52.186;5.688;2023-04-24T05:08:37;9.70;99.90
16417;DHT22;8317;52.186;5.688;2023-04-24T05:11:03;9.70;99.90
16417;DHT22;8317;52.186;5.688;2023-04-24T05:13:31;9.70;99.90
16417;DHT22;8317;52.186;5.688;2023-04-24T05:15:58;9.70;99.90
16417;DHT22;8317;52.186;5.688;2023-04-24T05:18:26;9.70;99.90
16417;DHT22;8317;52.186;5.688;2023-04-24T05:20:52;9.70;99.90
16417;DHT22;8317;52.186;5.688;2023-04-24T05:23:21;9.80;99.90
16417;DHT22;8317;52.186;5.688;2023-04-24T05:25:47;9.80;99.90
16417;DHT22;8317;52.186;5.688;2023-04-24T05:28:14;9.80;99.90
16417;DHT22;8317;52.186;5.688;2023-04-24T05:30:42;9.80;99.90
16417;DHT22;8317;52.186;5.688;2023-04-24T05:33:08;9.80;99.90
16417;DHT22;8317;52.186;5.688;2023-04-24T05:35:35;9.70;99.90
16417;DHT22;8317;52.186;5.688;2023-04-24T05:38:02;9.70;99.90
16417;DHT22;8317;52.186;5.688;2023-04-24T05:40:31;9.70;99.90
16417;DHT22;8317;52.186;5.688;2023-04-24T05:42:57;9.70;99.90
16417;DHT22;8317;52.186;5.688;2023-04-24T05:45:24;9.70;99.90
16417;DHT22;8317;52.186;5.688;2023-04-24T05:47:52;9.70;99.90
16417;DHT22;8317;52.186;5.688;2023-04-24T05:50:19;9.80;99.90
16417;DHT22;8317;52.186;5.688;2023-04-24T05:52:46;9.80;99.90
16417;DHT22;8317;52.186;5.688;2023-04-24T05:55:13;9.70;99.90
16417;DHT22;8317;52.186;5.688;2023-04-24T05:57:44;9.80;99.90
16417;DHT22;8317;52.186;5.688;2023-04-24T06:00:12;9.80;99.90
16417;DHT22;8317;52.186;5.688;2023-04-24T06:02:39;9.80;99.90
16417;DHT22;8317;52.186;5.688;2023-04-24T06:05:06;9.90;99.90
16417;DHT22;8317;52.186;5.688;2023-04-24T06:07:34;9.90;99.90
16417;DHT22;8317;52.186;5.688;2023-04-24T06:10:01;9.90;99.90
16417;DHT22;8317;52.186;5.688;2023-04-24T06:12:28;10.00;99.90
16417;DHT22;8317;52.186;5.688;2023-04-24T06:14:56;10.10;99.90
16417;DHT22;8317;52.186;5.688;2023-04-24T06:17:23;10.10;99.90
16417;DHT22;8317;52.186;5.688;2023-04-24T06:19:50;10.10;99.90
16417;DHT22;8317;52.186;5.688;2023-04-24T06:22:17;10.00;99.90
16417;DHT22;8317;52.186;5.688;2023-04-24T06:24:43;10.00;99.90
16417;DHT22;8317;52.186;5.688;2023-04-24T06:27:10;10.00;99.90
16417;DHT22;8317;52.186;5.688;2023-04-24T06:29:37;9.90;99.90
16417;DHT22;8317;52.186;5.688;2023-04-24T06:32:05;9.90;99.90
16417;DHT22;8317;52.186;5.688;2023-04-24T06:34:33;9.80;99.90
16417;DHT22;8317;52.186;5.688;2023-04-24T06:37:01;9.80;99.90
16417;DHT22;8317;52.186;5.688;2023-04-24T06:39:27;9.80;99.90
16417;DHT22;8317;52.186;5.688;2023-04-24T06:41:54;9.80;99.90
16417;DHT22;8317;52.186;5.688;2023-04-24T06:44:21;9.80;99.90
16417;DHT22;8317;52.186;5.688;2023-04-24T06:46:48;9.70;99.90
16417;DHT22;8317;52.186;5.688;2023-04-24T06:49:16;9.60;99.90
16417;DHT22;8317;52.186;5.688;2023-04-24T06:51:43;9.60;99.90
16417;DHT22;8317;52.186;5.688;2023-04-24T06:54:10;9.60;99.90
16417;DHT22;8317;52.186;5.688;2023-04-24T06:56:37;9.50;99.90
16417;DHT22;8317;52.186;5.688;2023-04-24T06:59:04;9.50;99.90
16417;DHT22;8317;52.186;5.688;2023-04-24T07:01:31;9.50;99.90
16417;DHT22;8317;52.186;5.688;2023-04-24T07:03:58;9.50;99.90
16417;DHT22;8317;52.186;5.688;2023-04-24T07:06:26;9.50;99.90
16417;DHT22;8317;52.186;5.688;2023-04-24T07:08:54;9.40;99.90
16417;DHT22;8317;52.186;5.688;2023-04-24T07:11:21;9.40;99.90
16417;DHT22;8317;52.186;5.688;2023-04-24T07:13:48;9.30;99.90
16417;DHT22;8317;52.186;5.688;2023-04-24T07:16:15;9.30;99.90
16417;DHT22;8317;52.186;5.688;2023-04-24T07:18:42;9.30;99.90
16417;DHT22;8317;52.186;5.688;2023-04-24T07:21:09;9.20;99.90
16417;DHT22;8317;52.186;5.688;2023-04-24T07:23:38;9.30;99.90
16417;DHT22;8317;52.186;5.688;2023-04-24T07:26:06;9.30;99.90
16417;DHT22;8317;52.186;5.688;2023-04-24T07:28:33;9.30;99.90
16417;DHT22;8317;52.186;5.688;2023-04-24T07:31:00;9.30;99.90
16417;DHT22;8317;52.186;5.688;2023-04-24T07:33:27;9.20;99.90
16417;DHT22;8317;52.186;5.688;2023-04-24T07:35:54;9.10;99.90
16417;DHT22;8317;52.186;5.688;2023-04-24T07:38:22;9.10;99.90
16417;DHT22;8317;52.186;5.688;2023-04-24T07:40:52;9.10;99.90
16417;DHT22;8317;52.186;5.688;2023-04-24T07:43:20;9.00;99.90
16417;DHT22;8317;52.186;5.688;2023-04-24T07:45:47;9.00;99.90
16417;DHT22;8317;52.186;5.688;2023-04-24T07:48:14;9.00;99.90
16417;DHT22;8317;52.186;5.688;2023-04-24T07:50:42;9.00;99.90
16417;DHT22;8317;52.186;5.688;2023-04-24T07:53:09;9.00;99.90
16417;DHT22;8317;52.186;5.688;2023-04-24T07:55:36;9.00;99.90
16417;DHT22;8317;52.186;5.688;2023-04-24T07:58:04;8.80;99.90
16417;DHT22;8317;52.186;5.688;2023-04-24T08:00:31;8.90;99.90
16417;DHT22;8317;52.186;5.688;2023-04-24T08:02:58;8.90;99.90
16417;DHT22;8317;52.186;5.688;2023-04-24T08:05:25;8.80;99.90
16417;DHT22;8317;52.186;5.688;2023-04-24T08:07:54;8.90;99.90
16417;DHT22;8317;52.186;5.688;2023-04-24T08:10:21;8.90;99.90
16417;DHT22;8317;52.186;5.688;2023-04-24T08:12:48;8.90;99.90
16417;DHT22;8317;52.186;5.688;2023-04-24T08:15:16;8.90;99.90
16417;DHT22;8317;52.186;5.688;2023-04-24T08:17:43;9.00;99.90
16417;DHT22;8317;52.186;5.688;2023-04-24T08:20:11;8.90;99.90
16417;DHT22;8317;52.186;5.688;2023-04-24T08:22:39;9.00;99.90
16417;DHT22;8317;52.186;5.688;2023-04-24T08:25:08;9.10;99.90
16417;DHT22;8317;52.186;5.688;2023-04-24T08:27:35;9.10;99.90
16417;DHT22;8317;52.186;5.688;2023-04-24T08:30:03;9.10;99.90
16417;DHT22;8317;52.186;5.688;2023-04-24T08:32:32;9.10;99.90
16417;DHT22;8317;52.186;5.688;2023-04-24T08:34:59;9.20;99.90
16417;DHT22;8317;52.186;5.688;2023-04-24T08:37:26;9.20;99.90
16417;DHT22;8317;52.186;5.688;2023-04-24T08:39:53;9.10;99.90
16417;DHT22;8317;52.186;5.688;2023-04-24T08:42:21;9.20;99.90
16417;DHT22;8317;52.186;5.688;2023-04-24T08:44:49;9.20;99.90
16417;DHT22;8317;52.186;5.688;2023-04-24T08:47:16;9.20;99.90
16417;DHT22;8317;52.186;5.688;2023-04-24T08:49:44;9.10;99.90
16417;DHT22;8317;52.186;5.688;2023-04-24T08:52:12;8.90;99.90
16417;DHT22;8317;52.186;5.688;2023-04-24T08:54:41;9.00;99.90
16417;DHT22;8317;52.186;5.688;2023-04-24T08:57:09;8.90;99.90
16417;DHT22;8317;52.186;5.688;2023-04-24T08:59:38;8.90;99.90
16417;DHT22;8317;52.186;5.688;2023-04-24T09:02:05;8.90;99.90
16417;DHT22;8317;52.186;5.688;2023-04-24T09:04:33;8.90;99.90
16417;DHT22;8317;52.186;5.688;2023-04-24T09:07:03;8.90;99.90
16417;DHT22;8317;52.186;5.688;2023-04-24T09:09:31;8.90;99.90
16417;DHT22;8317;52.186;5.688;2023-04-24T09:11:59;8.80;99.90
16417;DHT22;8317;52.186;5.688;2023-04-24T09:14:27;8.80;99.90
16417;DHT22;8317;52.186;5.688;2023-04-24T09:16:56;8.80;99.90
16417;DHT22;8317;52.186;5.688;2023-04-24T09:19:23;8.70;99.90
16417;DHT22;8317;52.186;5.688;2023-04-24T09:21:52;8.80;99.90
16417;DHT22;8317;52.186;5.688;2023-04-24T09:24:21;8.70;99.90
16417;DHT22;8317;52.186;5.688;2023-04-24T09:26:49;8.80;99.90
16417;DHT22;8317;52.186;5.688;2023-04-24T09:29:22;8.80;99.90
16417;DHT22;8317;52.186;5.688;2023-04-24T09:31:49;8.90;99.90
16417;DHT22;8317;52.186;5.688;2023-04-24T09:34:21;9.00;99.90
16417;DHT22;8317;52.186;5.688;2023-04-24T09:36:48;9.10;99.90
16417;DHT22;8317;52.186;5.688;2023-04-24T09:39:16;9.20;99.90
16417;DHT22;8317;52.186;5.688;2023-04-24T09:41:48;9.20;99.90
16417;DHT22;8317;52.186;5.688;2023-04-24T09:44:17;9.20;99.90
16417;DHT22;8317;52.186;5.688;2023-04-24T09:46:49;9.30;99.90
16417;DHT22;8317;52.186;5.688;2023-04-24T09:49:21;9.30;99.90
16417;DHT22;8317;52.186;5.688;2023-04-24T09:51:48;9.50;99.90
16417;DHT22;8317;52.186;5.688;2023-04-24T09:54:16;9.50;99.90
16417;DHT22;8317;52.186;5.688;2023-04-24T09:56:44;9.50;99.90
16417;DHT22;8317;52.186;5.688;2023-04-24T09:59:13;9.40;99.90
16417;DHT22;8317;52.186;5.688;2023-04-24T10:01:41;9.20;99.90
16417;DHT22;8317;52.186;5.688;2023-04-24T10:04:17;9.10;99.90
16417;DHT22;8317;52.186;5.688;2023-04-24T10:06:45;9.00;99.90
16417;DHT22;8317;52.186;5.688;2023-04-24T10:09:12;8.90;99.90
16417;DHT22;8317;52.186;5.688;2023-04-24T10:11:42;8.90;99.90
16417;DHT22;8317;52.186;5.688;2023-04-24T10:14:09;8.80;99.90
16417;DHT22;8317;52.186;5.688;2023-04-24T10:16:39;8.80;99.90
16417;DHT22;8317;52.186;5.688;2023-04-24T10:19:07;8.90;99.90
16417;DHT22;8317;52.186;5.688;2023-04-24T10:21:35;9.00;99.90
16417;DHT22;8317;52.186;5.688;2023-04-24T10:24:03;9.00;99.90
16417;DHT22;8317;52.186;5.688;2023-04-24T10:26:33;9.00;99.90
16417;DHT22;8317;52.186;5.688;2023-04-24T10:29:01;9.20;99.90
16417;DHT22;8317;52.186;5.688;2023-04-24T10:31:31;9.40;99.90
16417;DHT22;8317;52.186;5.688;2023-04-24T10:34:00;9.50;99.90
16417;DHT22;8317;52.186;5.688;2023-04-24T10:36:29;9.50;99.90
16417;DHT22;8317;52.186;5.688;2023-04-24T10:38:59;9.70;99.90
16417;DHT22;8317;52.186;5.688;2023-04-24T10:41:30;9.90;99.90
16417;DHT22;8317;52.186;5.688;2023-04-24T10:44:07;10.00;99.90
16417;DHT22;8317;52.186;5.688;2023-04-24T10:46:34;10.10;99.90
16417;DHT22;8317;52.186;5.688;2023-04-24T10:49:05;10.20;99.90
16417;DHT22;8317;52.186;5.688;2023-04-24T10:51:45;10.10;99.90
16417;DHT22;8317;52.186;5.688;2023-04-24T10:54:23;10.20;99.90
16417;DHT22;8317;52.186;5.688;2023-04-24T10:56:50;10.20;99.90
16417;DHT22;8317;52.186;5.688;2023-04-24T10:59:24;10.20;99.90
16417;DHT22;8317;52.186;5.688;2023-04-24T11:01:53;10.50;99.90
16417;DHT22;8317;52.186;5.688;2023-04-24T11:04:31;10.60;99.90
16417;DHT22;8317;52.186;5.688;2023-04-24T11:06:58;10.70;99.90
16417;DHT22;8317;52.186;5.688;2023-04-24T11:09:27;10.60;99.90
16417;DHT22;8317;52.186;5.688;2023-04-24T11:12:03;10.40;99.90
16417;DHT22;8317;52.186;5.688;2023-04-24T11:14:59;10.30;99.90
16417;DHT22;8317;52.186;5.688;2023-04-24T11:17:31;10.20;99.90
16417;DHT22;8317;52.186;5.688;2023-04-24T11:20:04;10.10;99.90
16417;DHT22;8317;52.186;5.688;2023-04-24T11:22:34;10.00;99.90
16417;DHT22;8317;52.186;5.688;2023-04-24T11:25:02;9.80;99.90
16417;DHT22;8317;52.186;5.688;2023-04-24T11:27:30;9.90;99.90
16417;DHT22;8317;52.186;5.688;2023-04-24T11:30:03;9.90;99.90
16417;DHT22;8317;52.186;5.688;2023-04-24T11:32:35;9.80;99.90
16417;DHT22;8317;52.186;5.688;2023-04-24T11:35:06;9.60;99.90
16417;DHT22;8317;52.186;5.688;2023-04-24T11:37:35;9.80;99.90
16417;DHT22;8317;52.186;5.688;2023-04-24T11:40:03;10.10;99.90
16417;DHT22;8317;52.186;5.688;2023-04-24T11:42:34;10.40;99.90
16417;DHT22;8317;52.186;5.688;2023-04-24T11:45:01;10.60;99.90
16417;DHT22;8317;52.186;5.688;2023-04-24T11:47:29;10.80;99.90
16417;DHT22;8317;52.186;5.688;2023-04-24T11:49:58;11.20;99.90
16417;DHT22;8317;52.186;5.688;2023-04-24T11:52:27;11.40;99.90
16417;DHT22;8317;52.186;5.688;2023-04-24T11:54:54;11.50;99.90
16417;DHT22;8317;52.186;5.688;2023-04-24T11:57:21;11.70;99.90
16417;DHT22;8317;52.186;5.688;2023-04-24T11:59:48;11.90;99.90
16417;DHT22;8317;52.186;5.688;2023-04-24T12:02:25;11.80;99.90
16417;DHT22;8317;52.186;5.688;2023-04-24T12:04:53;11.60;99.90
16417;DHT22;8317;52.186;5.688;2023-04-24T12:07:20;11.40;99.90
16417;DHT22;8317;52.186;5.688;2023-04-24T12:09:54;11.00;99.90
16417;DHT22;8317;52.186;5.688;2023-04-24T12:12:24;10.80;99.90
16417;DHT22;8317;52.186;5.688;2023-04-24T12:14:54;10.80;99.90
16417;DHT22;8317;52.186;5.688;2023-04-24T12:17:24;10.70;99.90
16417;DHT22;8317;52.186;5.688;2023-04-24T12:19:52;10.80;99.90
16417;DHT22;8317;52.186;5.688;2023-04-24T12:22:19;10.80;99.90
16417;DHT22;8317;52.186;5.688;2023-04-24T12:25:04;10.70;99.90
16417;DHT22;8317;52.186;5.688;2023-04-24T12:27:31;10.80;99.90
16417;DHT22;8317;52.186;5.688;2023-04-24T12:30:01;10.70;99.90
16417;DHT22;8317;52.186;5.688;2023-04-24T12:32:28;10.70;99.90
16417;DHT22;8317;52.186;5.688;2023-04-24T12:34:56;10.60;99.90
16417;DHT22;8317;52.186;5.688;2023-04-24T12:37:24;10.70;99.90
16417;DHT22;8317;52.186;5.688;2023-04-24T12:39:59;10.70;99.90
16417;DHT22;8317;52.186;5.688;2023-04-24T12:42:28;10.80;99.90
16417;DHT22;8317;52.186;5.688;2023-04-24T12:45:00;11.10;99.90
16417;DHT22;8317;52.186;5.688;2023-04-24T12:47:29;11.20;99.90
16417;DHT22;8317;52.186;5.688;2023-04-24T12:49:56;11.20;99.90
16417;DHT22;8317;52.186;5.688;2023-04-24T12:52:23;11.10;99.90
16417;DHT22;8317;52.186;5.688;2023-04-24T12:54:52;11.00;99.90
16417;DHT22;8317;52.186;5.688;2023-04-24T12:57:19;10.90;99.90
16417;DHT22;8317;52.186;5.688;2023-04-24T12:59:48;10.80;99.90
16417;DHT22;8317;52.186;5.688;2023-04-24T13:02:15;10.80;99.90
16417;DHT22;8317;52.186;5.688;2023-04-24T13:04:44;10.80;99.90
16417;DHT22;8317;52.186;5.688;2023-04-24T13:07:11;10.90;99.90
16417;DHT22;8317;52.186;5.688;2023-04-24T13:09:39;10.70;99.90
16417;DHT22;8317;52.186;5.688;2023-04-24T13:12:06;10.50;99.90
16417;DHT22;8317;52.186;5.688;2023-04-24T13:14:34;10.20;99.90
16417;DHT22;8317;52.186;5.688;2023-04-24T13:17:03;9.80;99.90
16417;DHT22;8317;52.186;5.688;2023-04-24T13:19:35;9.60;99.90
16417;DHT22;8317;52.186;5.688;2023-04-24T13:22:02;9.50;99.90
16417;DHT22;8317;52.186;5.688;2023-04-24T13:24:30;9.40;99.90
16417;DHT22;8317;52.186;5.688;2023-04-24T13:26:57;9.40;99.90
16417;DHT22;8317;52.186;5.688;2023-04-24T13:29:26;9.30;99.90
16417;DHT22;8317;52.186;5.688;2023-04-24T13:31:53;9.20;99.90
16417;DHT22;8317;52.186;5.688;2023-04-24T13:34:23;9.40;99.90
16417;DHT22;8317;52.186;5.688;2023-04-24T13:36:50;9.50;99.90
16417;DHT22;8317;52.186;5.688;2023-04-24T13:39:17;9.70;99.90
16417;DHT22;8317;52.186;5.688;2023-04-24T13:41:44;9.90;99.90
16417;DHT22;8317;52.186;5.688;2023-04-24T13:44:13;10.20;99.90
16417;DHT22;8317;52.186;5.688;2023-04-24T13:46:40;10.40;99.90
16417;DHT22;8317;52.186;5.688;2023-04-24T13:49:09;10.50;99.90
16417;DHT22;8317;52.186;5.688;2023-04-24T13:51:37;10.60;99.90
16417;DHT22;8317;52.186;5.688;2023-04-24T13:54:05;10.60;99.90
16417;DHT22;8317;52.186;5.688;2023-04-24T13:56:32;10.40;99.90
16417;DHT22;8317;52.186;5.688;2023-04-24T13:58:59;10.20;99.90
16417;DHT22;8317;52.186;5.688;2023-04-24T14:01:26;10.30;99.90
16417;DHT22;8317;52.186;5.688;2023-04-24T14:03:54;10.20;99.90
16417;DHT22;8317;52.186;5.688;2023-04-24T14:06:21;10.10;99.90
16417;DHT22;8317;52.186;5.688;2023-04-24T14:08:50;10.10;99.90
16417;DHT22;8317;52.186;5.688;2023-04-24T14:11:18;10.10;99.90
16417;DHT22;8317;52.186;5.688;2023-04-24T14:13:45;10.10;99.90
16417;DHT22;8317;52.186;5.688;2023-04-24T14:16:13;10.30;99.90
16417;DHT22;8317;52.186;5.688;2023-04-24T14:18:40;10.70;99.90
16417;DHT22;8317;52.186;5.688;2023-04-24T14:21:07;11.30;99.90
16417;DHT22;8317;52.186;5.688;2023-04-24T14:23:33;11.30;99.90
16417;DHT22;8317;52.186;5.688;2023-04-24T14:26:03;11.50;99.90
16417;DHT22;8317;52.186;5.688;2023-04-24T14:28:30;11.30;99.90
16417;DHT22;8317;52.186;5.688;2023-04-24T14:30:57;11.00;99.90
16417;DHT22;8317;52.186;5.688;2023-04-24T14:33:24;10.70;99.90
16417;DHT22;8317;52.186;5.688;2023-04-24T14:35:52;10.40;99.90
16417;DHT22;8317;52.186;5.688;2023-04-24T14:38:20;10.20;99.90
16417;DHT22;8317;52.186;5.688;2023-04-24T14:40:47;10.20;99.90
16417;DHT22;8317;52.186;5.688;2023-04-24T14:43:15;10.30;99.90
16417;DHT22;8317;52.186;5.688;2023-04-24T14:45:42;10.60;99.90
16417;DHT22;8317;52.186;5.688;2023-04-24T14:48:09;10.80;99.90
16417;DHT22;8317;52.186;5.688;2023-04-24T14:50:36;10.90;99.90
16417;DHT22;8317;52.186;5.688;2023-04-24T14:53:03;11.00;99.90
16417;DHT22;8317;52.186;5.688;2023-04-24T14:55:30;11.10;99.90
16417;DHT22;8317;52.186;5.688;2023-04-24T14:57:58;11.10;99.90
16417;DHT22;8317;52.186;5.688;2023-04-24T15:00:27;10.90;99.90
16417;DHT22;8317;52.186;5.688;2023-04-24T15:02:53;10.90;99.90
16417;DHT22;8317;52.186;5.688;2023-04-24T15:05:20;10.80;99.90
16417;DHT22;8317;52.186;5.688;2023-04-24T15:07:48;10.70;99.90
16417;DHT22;8317;52.186;5.688;2023-04-24T15:10:15;10.60;99.90
16417;DHT22;8317;52.186;5.688;2023-04-24T15:12:43;10.60;99.90
16417;DHT22;8317;52.186;5.688;2023-04-24T15:15:10;10.50;99.90
16417;DHT22;8317;52.186;5.688;2023-04-24T15:17:38;10.80;99.90
16417;DHT22;8317;52.186;5.688;2023-04-24T15:20:06;11.00;99.90
16417;DHT22;8317;52.186;5.688;2023-04-24T15:22:34;11.10;99.90
16417;DHT22;8317;52.186;5.688;2023-04-24T15:25:01;11.30;99.90
16417;DHT22;8317;52.186;5.688;2023-04-24T15:27:39;11.20;99.90
16417;DHT22;8317;52.186;5.688;2023-04-24T15:30:07;11.10;99.90
16417;DHT22;8317;52.186;5.688;2023-04-24T15:32:34;11.10;99.90
16417;DHT22;8317;52.186;5.688;2023-04-24T15:35:03;11.10;99.90
16417;DHT22;8317;52.186;5.688;2023-04-24T15:37:30;11.10;99.90
16417;DHT22;8317;52.186;5.688;2023-04-24T15:39:57;10.90;99.90
16417;DHT22;8317;52.186;5.688;2023-04-24T15:42:25;10.80;99.90
16417;DHT22;8317;52.186;5.688;2023-04-24T15:44:52;10.70;99.90
16417;DHT22;8317;52.186;5.688;2023-04-24T15:47:19;10.90;99.90
16417;DHT22;8317;52.186;5.688;2023-04-24T15:49:46;10.90;99.90
16417;DHT22;8317;52.186;5.688;2023-04-24T15:52:14;10.80;99.90
16417;DHT22;8317;52.186;5.688;2023-04-24T15:54:41;10.70;99.90
16417;DHT22;8317;52.186;5.688;2023-04-24T15:57:08;10.70;99.90
16417;DHT22;8317;52.186;5.688;2023-04-24T15:59:35;10.70;99.90
16417;DHT22;8317;52.186;5.688;2023-04-24T16:02:02;10.70;99.90